createdAt,value
2018-06-01T00:00:19.393Z,101316.16
2018-06-01T00:02:46.960Z,101313.31
2018-06-01T00:05:15.465Z,101318.16
2018-06-01T00:07:43.135Z,101311.96
2018-06-01T00:10:10.765Z,101309.34
2018-06-01T00:12:38.411Z,101307.52
2018-06-01T00:15:06.032Z,101300.41
2018-06-01T00:17:33.833Z,101295.48
2018-06-01T00:20:01.484Z,101287.77
2018-06-01T00:22:29.350Z,101286.95
2018-06-01T00:24:56.913Z,101290.52
2018-06-01T00:27:24.513Z,101297.84
2018-06-01T00:29:52.158Z,101298.16
2018-06-01T00:32:20.063Z,101295.09
2018-06-01T00:34:47.667Z,101290.13
2018-06-01T00:37:15.231Z,101293.80
2018-06-01T00:39:43.071Z,101299.48
2018-06-01T00:42:10.670Z,101297.69
2018-06-01T00:44:38.352Z,101300.85
2018-06-01T00:47:06.327Z,101300.75
2018-06-01T00:49:34.140Z,101307.81
2018-06-01T00:52:01.804Z,101308.64
2018-06-01T00:54:41.279Z,101306.58
2018-06-01T00:57:09.144Z,101318.37
2018-06-01T00:59:36.826Z,101315.85
2018-06-01T01:02:04.796Z,101327.27
2018-06-01T01:04:32.452Z,101332.00
2018-06-01T01:07:00.106Z,101335.34
2018-06-01T01:09:28.073Z,101337.27
2018-06-01T01:11:56.269Z,101344.33
2018-06-01T01:14:25.901Z,101353.73
2018-06-01T01:16:53.640Z,101351.56
2018-06-01T01:19:21.307Z,101351.56
2018-06-01T01:21:49.056Z,101353.30
2018-06-01T01:24:16.688Z,101361.32
2018-06-01T01:26:44.329Z,101358.93
2018-06-01T01:29:11.920Z,101362.83
2018-06-01T01:31:39.669Z,101366.11
2018-06-01T01:34:07.372Z,101350.53
2018-06-01T01:36:35.198Z,101355.42
2018-06-01T01:39:02.941Z,101356.16
2018-06-01T01:41:30.570Z,101349.64
2018-06-01T01:43:58.436Z,101345.03
2018-06-01T01:46:26.119Z,101348.14
2018-06-01T01:48:53.878Z,101340.80
2018-06-01T01:51:21.777Z,101340.55
2018-06-01T01:53:49.635Z,101348.80
2018-06-01T01:56:17.478Z,101343.45
2018-06-01T01:58:45.092Z,101343.20
2018-06-01T02:01:12.749Z,101342.74
2018-06-01T02:03:40.349Z,101341.19
2018-06-01T02:06:08.444Z,101335.31
2018-06-01T02:08:36.476Z,101334.90
2018-06-01T02:11:04.271Z,101331.69
2018-06-01T02:13:31.893Z,101330.85
2018-06-01T02:15:59.930Z,101332.58
2018-06-01T02:18:27.531Z,101321.72
2018-06-01T02:20:55.200Z,101324.59
2018-06-01T02:23:23.497Z,101322.25
2018-06-01T02:25:51.058Z,101324.77
2018-06-01T02:28:18.624Z,101320.72
2018-06-01T02:30:46.225Z,101324.72
2018-06-01T02:33:13.885Z,101328.32
2018-06-01T02:35:41.655Z,101329.09
2018-06-01T02:38:09.332Z,101337.52
2018-06-01T02:40:36.893Z,101338.25
2018-06-01T02:43:04.940Z,101338.25
2018-06-01T02:45:32.505Z,101342.31
2018-06-01T02:48:00.075Z,101344.45
2018-06-01T02:50:27.685Z,101340.74
2018-06-01T02:52:55.497Z,101342.11
2018-06-01T02:55:23.068Z,101330.48
2018-06-01T02:57:50.657Z,101333.81
2018-06-01T03:00:18.451Z,101327.63
2018-06-01T03:02:46.107Z,101326.13
2018-06-01T03:05:13.747Z,101328.27
2018-06-01T03:07:41.376Z,101327.90
2018-06-01T03:10:09.004Z,101324.31
2018-06-01T03:12:36.578Z,101336.68
2018-06-01T03:15:04.178Z,101332.25
2018-06-01T03:17:32.137Z,101333.39
2018-06-01T03:20:00.305Z,101335.23
2018-06-01T03:22:28.485Z,101338.09
2018-06-01T03:24:56.552Z,101343.53
2018-06-01T03:27:24.561Z,101330.70
2018-06-01T03:29:52.549Z,101343.04
2018-06-01T03:32:20.776Z,101344.30
2018-06-01T03:34:48.503Z,101344.06
2018-06-01T03:37:16.163Z,101337.67
2018-06-01T03:39:44.074Z,101338.20
2018-06-01T03:42:11.681Z,101336.36
2018-06-01T03:44:39.313Z,101333.44
2018-06-01T03:47:06.946Z,101343.58
2018-06-01T03:49:34.514Z,101331.28
2018-06-01T03:52:02.218Z,101328.17
2018-06-01T03:54:29.856Z,101329.31
2018-06-01T03:56:57.717Z,101327.33
2018-06-01T03:59:25.309Z,101324.59
2018-06-01T04:01:52.878Z,101327.56
2018-06-01T04:04:20.710Z,101325.55
2018-06-01T04:06:48.266Z,101317.48
2018-06-01T04:09:15.833Z,101317.37
2018-06-01T04:11:43.429Z,101321.25
2018-06-01T04:14:11.111Z,101321.20
2018-06-01T04:16:39.155Z,101321.73
2018-06-01T04:19:06.726Z,101317.43
2018-06-01T04:21:34.299Z,101324.53
2018-06-01T04:24:02.100Z,101318.13
2018-06-01T04:26:29.724Z,101318.33
2018-06-01T04:28:57.292Z,101325.26
2018-06-01T04:31:24.891Z,101323.36
2018-06-01T04:33:52.836Z,101323.09
2018-06-01T04:36:20.649Z,101322.74
2018-06-01T04:38:48.279Z,101319.23
2018-06-01T04:41:15.874Z,101319.47
2018-06-01T04:43:43.440Z,101320.55
2018-06-01T04:46:11.100Z,101317.27
2018-06-01T04:48:38.902Z,101307.89
2018-06-01T04:51:06.896Z,101305.08
2018-06-01T04:53:34.481Z,101312.48
2018-06-01T04:56:02.060Z,101308.41
2018-06-01T04:58:29.719Z,101312.00
2018-06-01T05:00:57.309Z,101312.84
2018-06-01T05:03:24.953Z,101317.34
2018-06-01T05:05:52.605Z,101311.23
2018-06-01T05:08:20.240Z,101313.76
2018-06-01T05:10:47.826Z,101308.59
2018-06-01T05:13:15.605Z,101302.85
2018-06-01T05:15:43.193Z,101303.80
2018-06-01T05:18:10.774Z,101298.37
2018-06-01T05:20:38.466Z,101295.36
2018-06-01T05:23:06.081Z,101301.25
2018-06-01T05:25:33.695Z,101297.29
2018-06-01T05:28:01.364Z,101298.70
2018-06-01T05:30:29.192Z,101307.20
2018-06-01T05:32:56.803Z,101308.01
2018-06-01T05:35:24.759Z,101314.72
2018-06-01T05:37:52.616Z,101314.37
2018-06-01T05:40:20.569Z,101311.17
2018-06-01T05:42:48.257Z,101315.68
2018-06-01T05:45:15.928Z,101314.55
2018-06-01T05:47:43.681Z,101312.63
2018-06-01T05:50:11.365Z,101315.58
2018-06-01T05:52:39.267Z,101319.85
2018-06-01T05:55:06.980Z,101319.70
2018-06-01T05:57:34.870Z,101319.89
2018-06-01T06:00:02.965Z,101325.16
2018-06-01T06:02:31.353Z,101322.39
2018-06-01T06:04:59.470Z,101325.36
2018-06-01T06:07:27.702Z,101327.09
2018-06-01T06:09:55.941Z,101326.06
2018-06-01T06:12:23.857Z,101321.31
2018-06-01T06:14:51.628Z,101323.53
2018-06-01T06:17:19.373Z,101323.02
2018-06-01T06:19:47.202Z,101324.00
2018-06-01T06:22:14.933Z,101329.41
2018-06-01T06:24:42.691Z,101330.93
2018-06-01T06:27:10.756Z,101331.27
2018-06-01T06:29:38.702Z,101336.38
2018-06-01T06:32:06.454Z,101325.70
2018-06-01T06:34:34.301Z,101320.17
2018-06-01T06:37:02.177Z,101317.39
2018-06-01T06:39:30.006Z,101323.83
2018-06-01T06:41:57.692Z,101316.99
2018-06-01T06:44:25.308Z,101316.15
2018-06-01T06:46:52.946Z,101330.56
2018-06-01T06:49:20.558Z,101318.28
2018-06-01T06:51:48.317Z,101325.37
2018-06-01T06:54:15.891Z,101313.07
2018-06-01T06:56:43.464Z,101314.75
2018-06-01T06:59:11.285Z,101314.27
2018-06-01T07:01:39.019Z,101316.95
2018-06-01T07:04:06.643Z,101319.13
2018-06-01T07:06:34.244Z,101311.34
2018-06-01T07:09:01.978Z,101315.25
2018-06-01T07:11:29.657Z,101314.59
2018-06-01T07:13:57.228Z,101311.74
2018-06-01T07:16:25.152Z,101314.36
2018-06-01T07:18:53.220Z,101316.39
2018-06-01T07:21:21.141Z,101309.98
2018-06-01T07:23:49.049Z,101311.29
2018-06-01T07:26:16.850Z,101312.17
2018-06-01T07:28:44.430Z,101317.02
2018-06-01T07:31:12.237Z,101326.00
2018-06-01T07:33:39.950Z,101322.29
2018-06-01T07:36:07.624Z,101316.77
2018-06-01T07:38:35.258Z,101324.22
2018-06-01T07:41:02.856Z,101330.37
2018-06-01T07:43:30.511Z,101333.01
2018-06-01T07:45:58.152Z,101331.63
2018-06-01T07:48:26.245Z,101331.05
2018-06-01T07:50:53.825Z,101331.66
2018-06-01T07:53:21.666Z,101325.77
2018-06-01T07:55:49.642Z,101332.14
2018-06-01T07:58:17.320Z,101339.75
2018-06-01T08:00:44.976Z,101345.77
2018-06-01T08:03:13.522Z,101352.78
2018-06-01T08:05:41.099Z,101348.30
2018-06-01T08:08:08.752Z,101340.61
2018-06-01T08:10:36.383Z,101339.27
2018-06-01T08:13:03.977Z,101329.56
2018-06-01T08:15:31.962Z,101339.52
2018-06-01T08:17:59.587Z,101336.73
2018-06-01T08:20:27.196Z,101343.27
2018-06-01T08:22:54.870Z,101340.49
2018-06-01T08:25:22.449Z,101345.66
2018-06-01T08:27:50.041Z,101341.10
2018-06-01T08:30:17.722Z,101334.13
2018-06-01T08:32:45.340Z,101342.07
2018-06-01T08:35:12.957Z,101344.05
2018-06-01T08:37:40.578Z,101344.80
2018-06-01T08:40:08.187Z,101348.56
2018-06-01T08:42:35.928Z,101347.73
2018-06-01T08:45:03.752Z,101335.97
2018-06-01T08:47:31.566Z,101337.09
2018-06-01T08:49:59.157Z,101331.84
2018-06-01T08:52:26.799Z,101333.45
2018-06-01T08:54:54.425Z,101333.22
2018-06-01T08:57:22.310Z,101335.44
2018-06-01T08:59:49.941Z,101335.02
2018-06-01T09:05:10.705Z,101335.89
2018-06-01T09:07:38.276Z,101330.72
2018-06-01T09:10:05.946Z,101336.79
2018-06-01T09:12:33.801Z,101338.95
2018-06-01T09:15:01.398Z,101337.54
2018-06-01T09:17:28.969Z,101337.72
2018-06-01T09:19:56.674Z,101347.66
2018-06-01T09:22:24.296Z,101343.47
2018-06-01T09:24:51.941Z,101347.63
2018-06-01T09:27:19.788Z,101343.09
2018-06-01T09:29:47.595Z,101345.59
2018-06-01T09:32:15.181Z,101337.04
2018-06-01T09:34:42.902Z,101341.05
2018-06-01T09:37:10.480Z,101339.53
2018-06-01T09:39:38.298Z,101338.65
2018-06-01T09:42:05.948Z,101342.58
2018-06-01T09:44:33.517Z,101342.30
2018-06-01T09:47:01.174Z,101337.91
2018-06-01T09:49:28.752Z,101330.41
2018-06-01T09:51:56.312Z,101327.47
2018-06-01T09:54:23.915Z,101325.66
2018-06-01T09:56:51.512Z,101331.85
2018-06-01T09:59:19.136Z,101328.40
2018-06-01T10:01:46.733Z,101327.12
2018-06-01T10:04:14.352Z,101318.27
2018-06-01T10:06:41.996Z,101319.95
2018-06-01T10:09:09.621Z,101316.87
2018-06-01T10:11:37.415Z,101321.39
2018-06-01T10:14:05.118Z,101315.31
2018-06-01T10:16:32.747Z,101315.55
2018-06-01T10:19:00.314Z,101315.14
2018-06-01T10:21:27.906Z,101314.48
2018-06-01T10:23:55.467Z,101316.48
2018-06-01T10:26:23.288Z,101320.28
2018-06-01T10:28:50.908Z,101311.61
2018-06-01T10:31:18.476Z,101315.47
2018-06-01T10:33:46.709Z,101320.99
2018-06-01T10:36:14.293Z,101320.16
2018-06-01T10:38:42.090Z,101327.92
2018-06-01T10:41:09.910Z,101330.67
2018-06-01T10:43:37.476Z,101338.61
2018-06-01T10:46:05.466Z,101340.61
2018-06-01T10:48:33.084Z,101339.10
2018-06-01T10:51:00.893Z,101335.69
2018-06-01T10:53:28.600Z,101337.99
2018-06-01T10:55:56.396Z,101332.35
2018-06-01T10:58:23.965Z,101329.75
2018-06-01T11:00:51.551Z,101333.20
2018-06-01T11:03:19.350Z,101330.53
2018-06-01T11:05:47.334Z,101329.44
2018-06-01T11:08:14.906Z,101324.65
2018-06-01T11:10:42.472Z,101324.43
2018-06-01T11:13:10.071Z,101323.00
2018-06-01T11:15:37.632Z,101322.19
2018-06-01T11:18:05.225Z,101322.77
2018-06-01T11:20:32.848Z,101313.26
2018-06-01T11:23:00.500Z,101318.27
2018-06-01T11:25:28.104Z,101312.33
2018-06-01T11:27:55.735Z,101316.87
2018-06-01T11:30:23.304Z,101312.08
2018-06-01T11:32:50.868Z,101311.73
2018-06-01T11:35:18.565Z,101305.97
2018-06-01T11:37:46.142Z,101291.91
2018-06-01T11:40:13.713Z,101294.36
2018-06-01T11:42:41.422Z,101293.77
2018-06-01T11:45:08.990Z,101289.53
2018-06-01T11:47:36.607Z,101295.90
2018-06-01T11:50:04.437Z,101293.91
2018-06-01T11:52:31.997Z,101287.61
2018-06-01T11:54:59.703Z,101293.20
2018-06-01T11:57:27.317Z,101294.09
2018-06-01T11:59:55.139Z,101297.30
2018-06-01T12:02:22.743Z,101294.76
2018-06-01T12:04:50.309Z,101285.77
2018-06-01T12:07:18.127Z,101277.19
2018-06-01T12:09:45.717Z,101273.98
2018-06-01T12:12:13.315Z,101277.77
2018-06-01T12:14:40.875Z,101276.63
2018-06-01T12:17:08.471Z,101286.06
2018-06-01T12:19:36.045Z,101292.69
2018-06-01T12:22:03.745Z,101290.33
2018-06-01T12:24:31.316Z,101296.83
2018-06-01T12:26:58.909Z,101300.50
2018-06-01T12:29:26.564Z,101299.11
2018-06-01T12:31:54.343Z,101299.70
2018-06-01T12:34:21.909Z,101299.77
2018-06-01T12:36:49.549Z,101299.92
2018-06-01T12:39:17.120Z,101291.81
2018-06-01T12:41:44.685Z,101292.73
2018-06-01T12:44:12.278Z,101291.28
2018-06-01T12:46:39.877Z,101288.95
2018-06-01T12:49:07.640Z,101278.56
2018-06-01T12:51:35.282Z,101281.80
2018-06-01T12:54:02.881Z,101282.75
2018-06-01T12:56:31.121Z,101293.94
2018-06-01T12:58:58.704Z,101300.44
2018-06-01T13:01:26.566Z,101301.80
2018-06-01T13:03:54.259Z,101303.61
2018-06-01T13:06:21.831Z,101300.17
2018-06-01T13:08:49.676Z,101306.14
2018-06-01T13:11:17.278Z,101298.48
2018-06-01T13:13:44.986Z,101282.81
2018-06-01T13:16:12.544Z,101279.38
2018-06-01T13:18:40.166Z,101278.67
2018-06-01T13:21:08.223Z,101276.31
2018-06-01T13:23:35.812Z,101274.80
2018-06-01T13:26:03.469Z,101272.00
2018-06-01T13:28:31.075Z,101257.34
2018-06-01T13:30:58.710Z,101256.72
2018-06-01T13:33:26.968Z,101259.33
2018-06-01T13:35:54.539Z,101261.64
2018-06-01T13:38:22.417Z,101258.82
2018-06-01T13:40:50.285Z,101249.69
2018-06-01T13:43:17.851Z,101257.52
2018-06-01T13:45:45.826Z,101258.58
2018-06-01T13:48:13.507Z,101263.56
2018-06-01T13:50:41.513Z,101271.84
2018-06-01T13:53:09.121Z,101268.31
2018-06-01T13:55:36.977Z,101282.98
2018-06-01T13:58:04.558Z,101278.98
2018-06-01T14:00:32.204Z,101328.23
2018-06-01T14:06:22.087Z,101398.30
2018-06-01T14:11:30.611Z,101411.09
2018-06-01T14:16:38.013Z,101378.47
2018-06-01T14:19:07.801Z,101391.19
2018-06-01T14:21:36.114Z,101406.32
2018-06-01T14:24:03.719Z,101405.42
2018-06-01T14:26:31.587Z,101411.52
2018-06-01T14:28:59.714Z,101416.04
2018-06-01T14:31:28.107Z,101418.81
2018-06-01T14:33:55.946Z,101421.06
2018-06-01T14:36:23.833Z,101420.03
2018-06-01T14:38:52.406Z,101394.62
2018-06-01T14:41:20.036Z,101378.46
2018-06-01T14:43:47.688Z,101368.25
2018-06-01T14:46:15.289Z,101346.89
2018-06-01T14:48:43.131Z,101340.14
2018-06-01T14:51:10.745Z,101332.47
2018-06-01T14:53:39.157Z,101329.14
2018-06-01T14:56:08.066Z,101324.00
2018-06-01T14:58:35.813Z,101322.45
2018-06-01T15:01:15.648Z,101329.27
2018-06-01T15:06:37.631Z,101368.78
2018-06-01T15:09:16.303Z,101364.77
2018-06-01T15:18:15.063Z,101349.50
2018-06-01T15:20:43.848Z,101351.66
2018-06-01T15:23:12.167Z,101362.57
2018-06-01T15:25:40.117Z,101368.13
2018-06-01T15:28:08.617Z,101360.70
2018-06-01T15:30:41.605Z,101351.48
2018-06-01T15:33:13.680Z,101352.47
2018-06-01T15:35:44.238Z,101343.73
2018-06-01T15:41:07.884Z,101347.21
2018-06-01T15:43:35.910Z,101341.16
2018-06-01T15:46:03.968Z,101350.15
2018-06-01T15:48:31.873Z,101361.06
2018-06-01T15:50:59.577Z,101365.45
2018-06-01T15:53:27.660Z,101364.12
2018-06-01T15:55:55.542Z,101369.81
2018-06-01T15:58:28.227Z,101366.41
2018-06-01T16:00:57.031Z,101368.23
2018-06-01T16:03:25.421Z,101354.35
2018-06-01T16:05:58.034Z,101345.64
2018-06-01T16:08:30.445Z,101344.40
2018-06-01T16:10:58.193Z,101335.44
2018-06-01T16:13:32.989Z,101328.92
2018-06-01T16:16:03.869Z,101329.10
2018-06-01T16:18:51.226Z,101331.58
2018-06-01T16:21:23.573Z,101329.60
2018-06-01T16:23:53.743Z,101331.86
2018-06-01T16:26:26.627Z,101329.39
2018-06-01T16:28:56.922Z,101330.59
2018-06-01T16:31:24.673Z,101316.91
2018-06-01T16:33:52.366Z,101307.31
2018-06-01T16:36:20.081Z,101303.95
2018-06-01T16:38:47.727Z,101300.60
2018-06-01T16:41:15.693Z,101302.72
2018-06-01T16:43:43.542Z,101304.55
2018-06-01T16:46:11.185Z,101313.19
2018-06-01T16:48:39.090Z,101308.92
2018-06-01T16:51:06.730Z,101303.64
2018-06-01T16:53:34.357Z,101301.72
2018-06-01T16:56:01.977Z,101308.36
2018-06-01T16:58:29.591Z,101306.11
2018-06-01T17:00:57.202Z,101306.34
2018-06-01T17:03:24.786Z,101311.16
2018-06-01T17:05:52.385Z,101308.97
2018-06-01T17:08:19.972Z,101309.14
2018-06-01T17:10:47.687Z,101307.86
2018-06-01T17:13:15.500Z,101316.40
2018-06-01T17:15:43.096Z,101315.26
2018-06-01T17:18:10.939Z,101320.81
2018-06-01T17:20:38.529Z,101315.99
2018-06-01T17:23:06.157Z,101326.36
2018-06-01T17:25:33.746Z,101323.37
2018-06-01T17:28:01.332Z,101326.39
2018-06-01T17:30:28.931Z,101325.09
2018-06-01T17:32:56.636Z,101325.27
2018-06-01T17:35:24.303Z,101323.61
2018-06-01T17:37:52.270Z,101329.58
2018-06-01T17:40:19.960Z,101331.60
2018-06-01T17:42:47.538Z,101329.44
2018-06-01T17:45:15.187Z,101322.32
2018-06-01T17:47:42.918Z,101333.44
2018-06-01T17:50:10.510Z,101333.97
2018-06-01T17:52:38.090Z,101335.28
2018-06-01T17:55:06.272Z,101337.95
2018-06-01T17:57:33.902Z,101333.10
2018-06-01T18:00:01.730Z,101336.91
2018-06-01T18:02:29.466Z,101339.11
2018-06-01T18:04:57.271Z,101348.39
2018-06-01T18:07:25.086Z,101352.90
2018-06-01T18:09:52.681Z,101348.54
2018-06-01T18:12:20.620Z,101350.66
2018-06-01T18:14:48.189Z,101349.46
2018-06-01T18:17:15.753Z,101353.00
2018-06-01T18:19:43.347Z,101362.84
2018-06-01T18:22:10.917Z,101366.16
2018-06-01T18:24:38.747Z,101358.25
2018-06-01T18:27:06.328Z,101349.61
2018-06-01T18:29:33.897Z,101351.73
2018-06-01T18:32:01.488Z,101353.89
2018-06-01T18:34:29.205Z,101352.61
2018-06-01T18:36:56.780Z,101355.59
2018-06-01T18:39:24.349Z,101354.25
2018-06-01T18:41:52.171Z,101353.74
2018-06-01T18:44:19.978Z,101357.96
2018-06-01T18:46:47.575Z,101359.94
2018-06-01T18:49:15.146Z,101368.84
2018-06-01T18:51:42.780Z,101368.66
2018-06-01T18:54:10.593Z,101361.77
2018-06-01T18:56:38.391Z,101369.04
2018-06-01T18:59:06.349Z,101363.75
2018-06-01T19:01:33.928Z,101366.09
2018-06-01T19:04:01.546Z,101358.89
2018-06-01T19:06:29.142Z,101368.91
2018-06-01T19:08:56.714Z,101370.06
2018-06-01T19:11:24.315Z,101370.88
2018-06-01T19:13:51.945Z,101382.06
2018-06-01T19:16:19.757Z,101386.97
2018-06-01T19:18:47.330Z,101386.53
2018-06-01T19:21:15.274Z,101387.56
2018-06-01T19:23:42.860Z,101391.70
2018-06-01T19:26:10.513Z,101394.78
2018-06-01T19:28:38.234Z,101392.91
2018-06-01T19:31:05.813Z,101403.72
2018-06-01T19:33:33.451Z,101405.88
2018-06-01T19:36:01.314Z,101409.04
2018-06-01T19:38:28.892Z,101415.48
2018-06-01T19:40:56.464Z,101414.88
2018-06-01T19:43:24.137Z,101411.44
2018-06-01T19:45:51.760Z,101415.38
2018-06-01T19:48:19.333Z,101428.25
2018-06-01T19:50:46.990Z,101429.49
2018-06-01T19:53:14.566Z,101432.11
2018-06-01T19:55:42.179Z,101437.11
2018-06-01T19:58:09.788Z,101435.69
2018-06-01T20:00:37.373Z,101430.55
2018-06-01T20:03:04.965Z,101435.88
2018-06-01T20:05:32.799Z,101432.52
2018-06-01T20:08:00.359Z,101435.09
2018-06-01T20:10:28.248Z,101431.70
2018-06-01T20:12:55.940Z,101439.17
2018-06-01T20:15:23.592Z,101439.50
2018-06-01T20:17:51.505Z,101438.61
2018-06-01T20:20:19.321Z,101443.16
2018-06-01T20:22:46.884Z,101444.00
2018-06-01T20:25:14.573Z,101443.63
2018-06-01T20:27:42.148Z,101446.58
2018-06-01T20:30:10.010Z,101446.21
2018-06-01T20:32:37.647Z,101443.86
2018-06-01T20:35:05.307Z,101446.38
2018-06-01T20:37:32.928Z,101450.21
2018-06-01T20:40:00.601Z,101446.59
2018-06-01T20:42:28.545Z,101447.91
2018-06-01T20:44:56.179Z,101450.33
2018-06-01T20:47:23.870Z,101450.53
2018-06-01T20:49:51.783Z,101441.89
2018-06-01T20:52:19.425Z,101448.48
2018-06-01T20:54:48.053Z,101447.36
2018-06-01T20:57:15.872Z,101458.50
2018-06-01T20:59:43.463Z,101459.22
2018-06-01T21:02:11.381Z,101450.22
2018-06-01T21:04:38.983Z,101450.97
2018-06-01T21:07:06.545Z,101451.76
2018-06-01T21:09:34.202Z,101449.67
2018-06-01T21:12:01.797Z,101449.10
2018-06-01T21:14:29.420Z,101453.84
2018-06-01T21:16:57.022Z,101455.00
2018-06-01T21:19:24.656Z,101464.93
2018-06-01T21:21:52.256Z,101465.99
2018-06-01T21:24:19.820Z,101468.44
2018-06-01T21:26:47.920Z,101472.83
2018-06-01T21:29:15.488Z,101488.13
2018-06-01T21:31:43.067Z,101483.45
2018-06-01T21:34:10.759Z,101494.68
2018-06-01T21:36:38.329Z,101498.05
2018-06-01T21:39:06.918Z,101493.19
2018-06-01T21:41:34.483Z,101499.12
2018-06-01T21:44:02.057Z,101502.89
2018-06-01T21:46:29.912Z,101512.39
2018-06-01T21:48:57.475Z,101523.28
2018-06-01T21:51:25.182Z,101525.95
2018-06-01T21:53:52.992Z,101534.15
2018-06-01T21:56:20.557Z,101536.43
2018-06-01T21:58:48.163Z,101538.22
2018-06-01T22:01:15.849Z,101533.00
2018-06-01T22:03:43.429Z,101534.70
2018-06-01T22:06:11.050Z,101529.44
2018-06-01T22:08:38.634Z,101528.87
2018-06-01T22:11:06.481Z,101523.58
2018-06-01T22:13:34.107Z,101531.22
2018-06-01T22:16:02.076Z,101531.02
2018-06-01T22:18:29.799Z,101531.93
2018-06-01T22:20:57.411Z,101533.36
2018-06-01T22:23:25.392Z,101531.08
2018-06-01T22:25:53.041Z,101528.86
2018-06-01T22:28:20.680Z,101517.34
2018-06-01T22:30:48.302Z,101518.25
2018-06-01T22:33:15.896Z,101511.67
2018-06-01T22:35:43.508Z,101513.83
2018-06-01T22:38:11.084Z,101515.78
2018-06-01T22:40:38.765Z,101514.73
2018-06-01T22:43:06.436Z,101516.86
2018-06-01T22:45:34.043Z,101509.70
2018-06-01T22:48:01.714Z,101504.44
2018-06-01T22:50:29.476Z,101497.66
2018-06-01T22:52:57.374Z,101494.20
2018-06-01T22:55:25.262Z,101494.02
2018-06-01T22:57:53.368Z,101492.61
2018-06-01T23:00:45.848Z,101494.73
2018-06-01T23:03:13.480Z,101492.16
2018-06-01T23:05:41.246Z,101492.56
2018-06-01T23:08:08.860Z,101491.36
2018-06-01T23:10:36.536Z,101485.22
2018-06-01T23:13:04.477Z,101479.80
2018-06-01T23:15:32.489Z,101469.77
2018-06-01T23:18:00.512Z,101469.39
2018-06-01T23:20:28.318Z,101469.22
2018-06-01T23:22:56.932Z,101464.10
2018-06-01T23:25:24.560Z,101461.88
2018-06-01T23:27:52.129Z,101461.61
2018-06-01T23:30:20.077Z,101455.36
2018-06-01T23:32:47.641Z,101460.64
2018-06-01T23:35:15.288Z,101461.60
2018-06-01T23:37:43.291Z,101458.56
2018-06-01T23:40:10.873Z,101464.51
2018-06-01T23:42:38.526Z,101463.66
2018-06-01T23:45:06.176Z,101470.11
2018-06-01T23:47:33.762Z,101472.35
2018-06-01T23:50:01.342Z,101481.83
2018-06-01T23:52:29.020Z,101487.05
2018-06-01T23:54:56.652Z,101484.69
2018-06-01T23:57:24.490Z,101484.80
2018-06-01T23:59:52.114Z,101480.78
